Time;durP1;ratioP1;P1;durP2;ratioP2;P2;SDS_P1;SDS_P2;PMS_P1;PMS_P2;Temp;Humidity;BMP_temperature;BMP_pressure;BME280_temperature;BME280_humidity;BME280_pressure;Samples;Min_cycle;Max_cycle;Signal;HPM_P1;HPM_P2
2023/07/26 00:02:03;;;;;;;7.57;2.87;;;;;;;;;;4957389;28;20185;-66
2023/07/26 00:04:47;;;;;;;7.30;2.77;;;;;;;;;;4969525;28;20208;-67
2023/07/26 00:07:13;;;;;;;5.50;2.90;;;;;;;;;;4971301;28;20224;-66
2023/07/26 00:09:58;;;;;;;4.57;2.60;;;;;;;;;;4971950;28;20173;-66
2023/07/26 00:12:27;;;;;;;6.37;2.87;;;;;;;;;;4971033;28;20625;-67
2023/07/26 00:14:54;;;;;;;5.93;2.70;;;;;;;;;;4970390;28;20280;-68
2023/07/26 00:17:21;;;;;;;7.43;3.10;;;;;;;;;;4968806;28;20616;-66
2023/07/26 00:19:47;;;;;;;8.93;3.93;;;;;;;;;;4969095;28;20244;-67
2023/07/26 00:22:14;;;;;;;11.07;5.03;;;;;;;;;;4968073;28;20196;-66
2023/07/26 00:24:41;;;;;;;7.27;3.70;;;;;;;;;;4966513;28;20225;-66
2023/07/26 00:27:08;;;;;;;8.67;3.50;;;;;;;;;;4967674;28;20189;-66
2023/07/26 00:29:35;;;;;;;6.83;3.40;;;;;;;;;;4969920;28;20511;-66
2023/07/26 00:32:01;;;;;;;8.87;3.90;;;;;;;;;;4952982;28;20284;-66
2023/07/26 00:34:28;;;;;;;9.57;3.93;;;;;;;;;;4951467;28;20722;-66
2023/07/26 00:36:55;;;;;;;10.67;4.27;;;;;;;;;;4951903;28;20194;-66
2023/07/26 00:39:22;;;;;;;6.67;3.13;;;;;;;;;;4952236;28;20217;-66
2023/07/26 00:41:48;;;;;;;4.80;2.40;;;;;;;;;;4969635;28;20276;-66
2023/07/26 00:44:32;;;;;;;5.63;2.60;;;;;;;;;;4968159;28;20797;-66
2023/07/26 00:46:59;;;;;;;6.77;2.93;;;;;;;;;;4963279;28;21431;-66
2023/07/26 00:49:26;;;;;;;5.87;3.00;;;;;;;;;;4951658;28;20675;-67
2023/07/26 00:51:53;;;;;;;6.53;3.17;;;;;;;;;;4968845;28;20196;-66
2023/07/26 01:26:16;;;;;;;6.57;3.20;;;;;;;;;;4957905;28;20231;-66
2023/07/26 01:28:43;;;;;;;6.17;2.80;;;;;;;;;;4965281;28;20194;-67
2023/07/26 01:31:10;;;;;;;4.97;2.83;;;;;;;;;;4968151;28;20190;-66
2023/07/26 01:33:36;;;;;;;5.43;2.43;;;;;;;;;;4951334;28;20201;-66
2023/07/26 01:36:03;;;;;;;4.17;2.97;;;;;;;;;;4934650;28;20186;-66
2023/07/26 01:38:30;;;;;;;8.20;2.80;;;;;;;;;;4950366;28;20666;-67
2023/07/26 01:40:57;;;;;;;6.43;2.73;;;;;;;;;;4967932;28;20194;-66
2023/07/26 01:43:42;;;;;;;7.50;2.47;;;;;;;;;;4954383;28;20240;-66
2023/07/26 01:46:12;;;;;;;6.73;2.27;;;;;;;;;;4935990;28;20216;-66
2023/07/26 01:48:57;;;;;;;7.57;2.60;;;;;;;;;;4968905;28;20186;-66
2023/07/26 01:51:24;;;;;;;3.77;2.43;;;;;;;;;;4966930;28;20194;-66
2023/07/26 01:53:50;;;;;;;7.27;2.87;;;;;;;;;;4967277;28;20245;-66
2023/07/26 01:56:17;;;;;;;6.13;2.87;;;;;;;;;;4951564;28;20272;-66
2023/07/26 01:58:44;;;;;;;9.37;3.43;;;;;;;;;;4951455;28;20197;-66
2023/07/26 02:01:10;;;;;;;6.53;2.67;;;;;;;;;;4970538;28;20194;-66
2023/07/26 02:03:37;;;;;;;4.80;2.73;;;;;;;;;;4973177;28;20197;-66
2023/07/26 02:06:04;;;;;;;5.80;2.70;;;;;;;;;;4955126;28;20721;-66
2023/07/26 02:08:30;;;;;;;3.87;2.33;;;;;;;;;;4952732;28;20197;-66
2023/07/26 02:10:58;;;;;;;4.93;2.20;;;;;;;;;;4953301;28;20276;-66
2023/07/26 02:13:24;;;;;;;7.30;3.40;;;;;;;;;;4970613;28;20657;-66
2023/07/26 02:16:08;;;;;;;7.73;2.77;;;;;;;;;;4970087;28;20193;-66
2023/07/26 02:18:35;;;;;;;8.43;2.50;;;;;;;;;;4971912;28;20189;-66
2023/07/26 02:21:19;;;;;;;7.17;2.60;;;;;;;;;;4971805;28;20185;-66
2023/07/26 02:23:46;;;;;;;8.53;3.00;;;;;;;;;;4953892;28;20317;-66
2023/07/26 02:26:13;;;;;;;5.47;2.60;;;;;;;;;;4972125;28;21007;-66
2023/07/26 02:28:40;;;;;;;7.03;2.70;;;;;;;;;;4939222;29;20222;-66
2023/07/26 02:31:07;;;;;;;5.50;2.80;;;;;;;;;;4962792;28;20256;-65
2023/07/26 02:33:34;;;;;;;7.00;3.10;;;;;;;;;;4957442;28;20190;-66
2023/07/26 02:36:00;;;;;;;7.43;2.93;;;;;;;;;;4940942;28;20198;-66
2023/07/26 02:38:28;;;;;;;3.83;2.77;;;;;;;;;;4973087;28;20581;-66
2023/07/26 02:41:13;;;;;;;6.37;2.73;;;;;;;;;;4954059;28;20186;-66
2023/07/26 02:43:40;;;;;;;5.80;2.83;;;;;;;;;;4971647;28;20240;-66
2023/07/26 02:46:24;;;;;;;5.97;2.60;;;;;;;;;;4970640;28;20213;-66
2023/07/26 02:48:51;;;;;;;5.23;3.00;;;;;;;;;;4954851;28;20280;-66
2023/07/26 02:51:35;;;;;;;7.00;2.80;;;;;;;;;;4971115;28;20177;-67
2023/07/26 02:54:02;;;;;;;5.10;2.87;;;;;;;;;;4954859;28;20195;-66
2023/07/26 02:56:28;;;;;;;8.07;2.67;;;;;;;;;;4971215;28;20335;-67
2023/07/26 02:58:55;;;;;;;4.80;2.83;;;;;;;;;;4971116;28;20177;-66
2023/07/26 03:01:22;;;;;;;8.03;2.97;;;;;;;;;;4946972;28;20260;-67
2023/07/26 03:03:49;;;;;;;4.73;2.53;;;;;;;;;;4972288;28;20193;-67
2023/07/26 03:06:16;;;;;;;6.83;3.00;;;;;;;;;;4970608;28;20253;-66
2023/07/26 03:08:42;;;;;;;6.93;2.77;;;;;;;;;;4970524;28;20201;-67
2023/07/26 03:11:27;;;;;;;6.57;2.73;;;;;;;;;;4970688;28;20181;-67
2023/07/26 03:13:55;;;;;;;6.27;2.60;;;;;;;;;;4954220;28;20197;-66
2023/07/26 03:16:22;;;;;;;7.93;2.63;;;;;;;;;;4954151;28;20198;-67
2023/07/26 03:18:49;;;;;;;7.33;2.70;;;;;;;;;;4953741;28;20194;-66
2023/07/26 03:21:16;;;;;;;6.17;2.27;;;;;;;;;;4971033;28;20252;-67
2023/07/26 03:23:42;;;;;;;2.93;2.43;;;;;;;;;;4954320;28;20240;-67
2023/07/26 03:26:09;;;;;;;6.60;2.70;;;;;;;;;;4971931;28;20763;-67
2023/07/26 03:28:36;;;;;;;5.43;2.43;;;;;;;;;;4954643;28;20198;-67
2023/07/26 03:31:02;;;;;;;7.50;2.43;;;;;;;;;;4970473;28;20221;-67
2023/07/26 03:33:29;;;;;;;4.07;2.23;;;;;;;;;;4967880;28;20229;-67
2023/07/26 03:35:56;;;;;;;4.33;2.47;;;;;;;;;;4968357;28;20252;-68
2023/07/26 03:38:23;;;;;;;6.30;2.73;;;;;;;;;;4954763;28;20189;-67
2023/07/26 03:40:49;;;;;;;4.67;2.23;;;;;;;;;;4972661;28;20228;-67
2023/07/26 03:43:16;;;;;;;5.87;2.30;;;;;;;;;;4972598;28;20200;-67
2023/07/26 03:45:43;;;;;;;6.90;2.50;;;;;;;;;;4954373;28;20217;-68
2023/07/26 03:48:10;;;;;;;7.10;2.70;;;;;;;;;;4953782;28;20599;-67
2023/07/26 03:50:36;;;;;;;7.07;2.43;;;;;;;;;;4969313;28;20201;-68
2023/07/26 03:53:06;;;;;;;4.50;2.60;;;;;;;;;;4971521;28;20205;-67
2023/07/26 03:55:32;;;;;;;5.27;2.40;;;;;;;;;;4970788;28;20194;-67
2023/07/26 03:57:59;;;;;;;9.27;2.57;;;;;;;;;;4972051;28;20212;-67
2023/07/26 04:00:26;;;;;;;6.17;2.40;;;;;;;;;;4972137;28;20221;-67
2023/07/26 04:02:53;;;;;;;10.73;2.77;;;;;;;;;;4969827;28;20263;-67
2023/07/26 04:05:20;;;;;;;7.30;2.57;;;;;;;;;;4953570;28;20221;-67
2023/07/26 04:07:50;;;;;;;6.83;3.13;;;;;;;;;;4970439;28;20649;-67
2023/07/26 04:10:17;;;;;;;6.03;2.80;;;;;;;;;;4971106;28;20766;-67
2023/07/26 04:12:43;;;;;;;7.50;2.37;;;;;;;;;;4968993;28;20190;-67
2023/07/26 04:15:10;;;;;;;7.43;2.33;;;;;;;;;;4972316;28;20201;-67
2023/07/26 04:17:37;;;;;;;8.07;2.97;;;;;;;;;;4971631;28;20272;-67
2023/07/26 04:20:04;;;;;;;7.83;2.50;;;;;;;;;;4956279;28;20205;-66
2023/07/26 04:22:31;;;;;;;6.73;2.90;;;;;;;;;;4967805;28;20200;-66
2023/07/26 04:24:57;;;;;;;5.63;2.67;;;;;;;;;;4971275;28;20205;-66
2023/07/26 04:27:24;;;;;;;5.20;2.50;;;;;;;;;;4971169;28;20617;-66
2023/07/26 04:29:51;;;;;;;6.80;2.20;;;;;;;;;;4965006;28;20189;-67
2023/07/26 04:32:18;;;;;;;5.03;2.17;;;;;;;;;;4970737;28;20197;-66
2023/07/26 04:34:47;;;;;;;8.23;2.53;;;;;;;;;;4954199;28;20199;-67
2023/07/26 04:37:14;;;;;;;9.20;2.50;;;;;;;;;;4968943;28;20233;-67
2023/07/26 04:39:41;;;;;;;10.43;2.33;;;;;;;;;;4970581;28;20194;-67
2023/07/26 04:42:08;;;;;;;3.93;2.27;;;;;;;;;;4969616;28;20194;-68
2023/07/26 04:44:35;;;;;;;7.97;2.50;;;;;;;;;;4968958;28;20229;-68
2023/07/26 04:47:02;;;;;;;6.80;2.40;;;;;;;;;;4970832;28;20312;-68
2023/07/26 04:49:28;;;;;;;10.53;2.70;;;;;;;;;;4971655;28;20604;-67
2023/07/26 04:51:55;;;;;;;6.60;2.27;;;;;;;;;;4947730;28;20205;-67
2023/07/26 04:54:22;;;;;;;4.40;2.00;;;;;;;;;;4967668;28;20279;-66
2023/07/26 04:56:49;;;;;;;7.73;2.00;;;;;;;;;;4967686;28;20200;-65
2023/07/26 04:59:17;;;;;;;5.50;1.90;;;;;;;;;;4970119;28;20261;-67
2023/07/26 05:01:44;;;;;;;6.00;2.13;;;;;;;;;;4966571;28;20193;-67
2023/07/26 05:04:11;;;;;;;8.33;2.10;;;;;;;;;;4953103;28;20201;-68
2023/07/26 05:06:38;;;;;;;5.67;2.40;;;;;;;;;;4968544;28;20221;-67
2023/07/26 05:09:05;;;;;;;6.53;2.30;;;;;;;;;;4969577;28;20185;-67
2023/07/26 05:11:31;;;;;;;7.07;1.90;;;;;;;;;;4970329;28;20252;-67
2023/07/26 05:13:59;;;;;;;7.37;2.10;;;;;;;;;;4952945;28;20201;-68
2023/07/26 05:16:26;;;;;;;3.73;2.03;;;;;;;;;;4951590;28;20198;-69
2023/07/26 05:18:57;;;;;;;5.30;2.27;;;;;;;;;;4967175;28;20197;-67
2023/07/26 05:21:24;;;;;;;2.53;1.63;;;;;;;;;;4959486;28;20205;-68
2023/07/26 05:23:51;;;;;;;3.67;1.70;;;;;;;;;;4935386;28;20194;-68
2023/07/26 05:26:17;;;;;;;2.67;1.87;;;;;;;;;;4966878;28;20225;-68
2023/07/26 05:29:01;;;;;;;6.37;2.20;;;;;;;;;;4967507;28;20177;-68
2023/07/26 05:31:28;;;;;;;5.83;2.83;;;;;;;;;;4967310;28;20197;-68
2023/07/26 05:33:55;;;;;;;5.83;2.47;;;;;;;;;;4968502;28;20205;-68
2023/07/26 05:36:21;;;;;;;3.97;1.90;;;;;;;;;;4953659;28;20229;-67
2023/07/26 05:38:48;;;;;;;4.80;2.20;;;;;;;;;;4968582;28;20233;-68
2023/07/26 05:41:16;;;;;;;5.33;2.20;;;;;;;;;;4948719;28;20194;-67
2023/07/26 05:43:43;;;;;;;3.87;2.30;;;;;;;;;;4955122;28;20803;-67
2023/07/26 05:46:09;;;;;;;4.53;2.00;;;;;;;;;;4955686;28;20218;-69
2023/07/26 05:48:54;;;;;;;4.70;2.20;;;;;;;;;;4975863;28;20189;-67
2023/07/26 05:51:21;;;;;;;5.80;2.27;;;;;;;;;;4968640;28;20553;-67
2023/07/26 05:53:48;;;;;;;4.87;2.27;;;;;;;;;;4964879;28;20234;-68
2023/07/26 05:56:14;;;;;;;6.00;2.73;;;;;;;;;;4960997;28;20706;-67
2023/07/26 05:58:41;;;;;;;5.83;2.50;;;;;;;;;;4973529;28;20293;-68
2023/07/26 06:01:10;;;;;;;4.03;2.30;;;;;;;;;;4971644;28;20190;-68
2023/07/26 06:03:37;;;;;;;6.63;2.70;;;;;;;;;;4969370;28;20200;-68
2023/07/26 06:06:04;;;;;;;7.33;2.23;;;;;;;;;;4969009;28;20221;-69
2023/07/26 06:08:30;;;;;;;3.63;2.03;;;;;;;;;;4973117;28;20309;-69
2023/07/26 06:10:57;;;;;;;7.87;2.03;;;;;;;;;;4969270;28;20285;-67
2023/07/26 06:13:24;;;;;;;5.47;2.40;;;;;;;;;;4972495;28;20241;-69
2023/07/26 06:15:50;;;;;;;6.87;2.33;;;;;;;;;;4954447;28;20669;-68
2023/07/26 06:18:17;;;;;;;3.50;1.90;;;;;;;;;;4972095;28;20194;-68
2023/07/26 06:20:44;;;;;;;4.30;2.10;;;;;;;;;;4970822;28;20192;-69
2023/07/26 06:23:11;;;;;;;3.47;2.37;;;;;;;;;;4972022;28;20694;-68
2023/07/26 06:25:37;;;;;;;5.90;2.17;;;;;;;;;;4970819;28;20203;-68
2023/07/26 06:28:04;;;;;;;4.93;2.53;;;;;;;;;;4952652;28;20194;-68
2023/07/26 06:30:48;;;;;;;4.50;2.30;;;;;;;;;;4972140;28;20185;-68
2023/07/26 06:33:15;;;;;;;4.57;2.37;;;;;;;;;;4955525;28;20198;-69
2023/07/26 06:35:42;;;;;;;3.60;2.40;;;;;;;;;;4970918;28;20272;-69
2023/07/26 06:38:09;;;;;;;6.80;2.57;;;;;;;;;;4971275;28;20189;-68
2023/07/26 06:40:36;;;;;;;5.20;2.40;;;;;;;;;;4969682;28;20202;-68
2023/07/26 06:43:03;;;;;;;4.90;2.40;;;;;;;;;;4960924;28;20336;-69
2023/07/26 06:45:30;;;;;;;4.90;2.63;;;;;;;;;;4970687;28;20762;-68
2023/07/26 06:47:56;;;;;;;5.17;2.70;;;;;;;;;;4972376;28;20181;-69
2023/07/26 06:50:23;;;;;;;6.20;2.73;;;;;;;;;;4970978;28;20244;-69
2023/07/26 06:52:51;;;;;;;6.53;3.30;;;;;;;;;;4951870;28;20452;-69
2023/07/26 06:55:18;;;;;;;4.17;2.20;;;;;;;;;;4969759;28;20190;-69
2023/07/26 06:57:45;;;;;;;5.23;2.10;;;;;;;;;;4972443;28;20178;-69
2023/07/26 07:00:14;;;;;;;4.33;2.23;;;;;;;;;;4968524;28;20205;-69
2023/07/26 07:02:41;;;;;;;3.93;2.03;;;;;;;;;;4962923;28;20676;-70
2023/07/26 07:05:08;;;;;;;4.80;2.30;;;;;;;;;;4954212;28;20189;-70
2023/07/26 07:07:35;;;;;;;4.10;1.80;;;;;;;;;;4969888;28;20300;-70
2023/07/26 07:10:03;;;;;;;5.27;2.03;;;;;;;;;;4953024;28;20316;-70
2023/07/26 07:12:29;;;;;;;4.57;2.00;;;;;;;;;;4970531;28;20229;-70
2023/07/26 07:14:57;;;;;;;5.43;1.87;;;;;;;;;;4965889;28;20653;-70
2023/07/26 07:17:24;;;;;;;6.93;2.00;;;;;;;;;;4964239;28;20185;-68
2023/07/26 07:20:09;;;;;;;8.63;2.33;;;;;;;;;;4971119;28;20185;-69
2023/07/26 07:22:35;;;;;;;4.60;1.80;;;;;;;;;;4971486;28;20190;-70
2023/07/26 07:25:03;;;;;;;4.57;2.03;;;;;;;;;;4968105;28;21812;-70
2023/07/26 07:27:29;;;;;;;3.13;2.00;;;;;;;;;;4953851;28;20228;-70
2023/07/26 07:29:56;;;;;;;3.97;1.63;;;;;;;;;;4969161;28;20212;-69
2023/07/26 07:32:23;;;;;;;4.43;1.60;;;;;;;;;;4968111;28;20241;-67
2023/07/26 07:34:50;;;;;;;5.17;2.00;;;;;;;;;;4966206;28;20289;-67
2023/07/26 07:37:16;;;;;;;4.17;1.53;;;;;;;;;;4971475;28;20553;-66
2023/07/26 07:39:43;;;;;;;3.90;1.60;;;;;;;;;;4970735;28;20682;-67
2023/07/26 07:42:10;;;;;;;3.80;1.50;;;;;;;;;;4972595;28;20186;-66
2023/07/26 07:44:37;;;;;;;4.20;1.63;;;;;;;;;;4971805;28;20237;-66
2023/07/26 07:47:03;;;;;;;4.60;1.70;;;;;;;;;;4970783;28;20221;-66
2023/07/26 07:49:34;;;;;;;5.90;1.90;;;;;;;;;;4954625;28;20200;-67
2023/07/26 07:52:01;;;;;;;4.87;2.00;;;;;;;;;;4970477;28;20597;-67
2023/07/26 07:54:45;;;;;;;4.23;1.77;;;;;;;;;;4966095;28;20180;-67
2023/07/26 07:57:12;;;;;;;3.40;1.50;;;;;;;;;;4970811;28;20200;-66
2023/07/26 07:59:39;;;;;;;4.67;1.83;;;;;;;;;;4970693;28;20597;-66
2023/07/26 08:02:06;;;;;;;6.10;1.60;;;;;;;;;;4971694;28;20190;-66
2023/07/26 08:04:35;;;;;;;5.00;1.60;;;;;;;;;;4971359;28;20929;-67
2023/07/26 08:07:19;;;;;;;5.33;1.80;;;;;;;;;;4971388;28;20213;-66
2023/07/26 08:09:46;;;;;;;4.37;1.80;;;;;;;;;;4968862;28;20220;-67
2023/07/26 08:12:13;;;;;;;4.27;1.60;;;;;;;;;;4971657;28;20255;-67
2023/07/26 08:14:40;;;;;;;4.77;1.70;;;;;;;;;;4970522;28;20541;-67
2023/07/26 08:17:07;;;;;;;5.00;2.00;;;;;;;;;;4971866;28;20201;-67
2023/07/26 08:19:34;;;;;;;4.83;1.80;;;;;;;;;;4971786;28;20215;-66
2023/07/26 08:22:01;;;;;;;4.50;1.40;;;;;;;;;;4972042;28;20204;-66
2023/07/26 08:24:28;;;;;;;4.47;1.70;;;;;;;;;;4972075;28;20197;-66
2023/07/26 08:26:56;;;;;;;3.87;1.50;;;;;;;;;;4970481;28;20316;-66
2023/07/26 08:29:23;;;;;;;4.90;1.60;;;;;;;;;;4971776;28;20672;-66
2023/07/26 08:31:50;;;;;;;3.03;1.40;;;;;;;;;;4972288;28;20194;-66
2023/07/26 08:34:17;;;;;;;3.17;1.50;;;;;;;;;;4968955;28;20276;-66
2023/07/26 08:36:44;;;;;;;3.43;1.43;;;;;;;;;;4965292;28;20700;-66
2023/07/26 08:39:10;;;;;;;1.73;1.27;;;;;;;;;;4971669;28;20205;-66
2023/07/26 08:41:57;;;;;;;3.03;1.50;;;;;;;;;;4970734;28;20212;-66
2023/07/26 08:44:24;;;;;;;2.33;1.30;;;;;;;;;;4960472;28;20728;-65
2023/07/26 08:47:09;;;;;;;2.57;1.43;;;;;;;;;;4956752;28;20727;-66
2023/07/26 08:49:36;;;;;;;2.77;1.30;;;;;;;;;;4970228;28;20240;-67
2023/07/26 08:52:03;;;;;;;2.20;1.50;;;;;;;;;;4970601;28;20193;-66
2023/07/26 08:54:30;;;;;;;3.13;1.27;;;;;;;;;;4971559;28;20721;-66
2023/07/26 08:56:57;;;;;;;3.93;1.63;;;;;;;;;;4971770;28;20553;-66
2023/07/26 08:59:25;;;;;;;3.93;1.47;;;;;;;;;;4971597;28;20194;-66
2023/07/26 09:01:54;;;;;;;3.60;1.37;;;;;;;;;;4970017;28;20379;-67
2023/07/26 09:04:32;;;;;;;2.03;1.10;;;;;;;;;;4955242;28;20207;-66
2023/07/26 09:07:02;;;;;;;3.67;1.20;;;;;;;;;;4953182;28;20621;-66
2023/07/26 09:09:31;;;;;;;4.77;1.23;;;;;;;;;;4970264;28;20193;-66
2023/07/26 09:11:58;;;;;;;2.40;1.20;;;;;;;;;;4970967;28;20557;-66
2023/07/26 09:14:27;;;;;;;3.63;1.20;;;;;;;;;;4970395;28;20202;-66
2023/07/26 09:17:01;;;;;;;3.20;1.10;;;;;;;;;;4971194;28;20296;-66
2023/07/26 09:19:34;;;;;;;4.87;1.33;;;;;;;;;;4971229;28;20275;-66
2023/07/26 09:22:02;;;;;;;4.20;1.47;;;;;;;;;;4954137;28;20200;-66
2023/07/26 09:24:48;;;;;;;3.00;1.10;;;;;;;;;;4968476;28;20181;-66
2023/07/26 09:27:16;;;;;;;1.87;0.90;;;;;;;;;;4971063;28;20221;-66
2023/07/26 09:29:43;;;;;;;2.40;1.20;;;;;;;;;;4971607;28;20259;-66
2023/07/26 09:32:10;;;;;;;3.50;1.33;;;;;;;;;;4954653;28;20204;-66
2023/07/26 09:34:37;;;;;;;4.03;1.67;;;;;;;;;;4971488;28;20196;-66
2023/07/26 09:37:04;;;;;;;3.33;1.37;;;;;;;;;;4954299;28;20232;-66
2023/07/26 09:39:33;;;;;;;4.53;1.27;;;;;;;;;;4971690;28;20189;-66
2023/07/26 09:42:04;;;;;;;5.33;1.70;;;;;;;;;;4970098;28;20225;-66
2023/07/26 09:44:31;;;;;;;2.07;1.57;;;;;;;;;;4950437;28;20244;-67
2023/07/26 09:46:58;;;;;;;2.43;1.40;;;;;;;;;;4969667;28;20240;-66
2023/07/26 09:49:26;;;;;;;3.87;1.70;;;;;;;;;;4951092;28;20541;-67
2023/07/26 09:51:57;;;;;;;3.37;1.40;;;;;;;;;;4952166;28;20194;-67
2023/07/26 09:54:28;;;;;;;3.03;1.30;;;;;;;;;;4966593;28;20189;-67
2023/07/26 09:56:59;;;;;;;1.67;1.10;;;;;;;;;;4942487;28;20186;-66
2023/07/26 09:59:27;;;;;;;3.30;1.47;;;;;;;;;;4954242;28;20273;-65
2023/07/26 10:01:54;;;;;;;2.43;1.23;;;;;;;;;;4970760;28;20645;-66
2023/07/26 10:04:22;;;;;;;5.07;1.50;;;;;;;;;;4971414;28;20685;-65
2023/07/26 10:06:49;;;;;;;2.73;1.53;;;;;;;;;;4954337;28;20210;-66
2023/07/26 10:09:15;;;;;;;2.97;1.70;;;;;;;;;;4954042;28;20182;-66
2023/07/26 10:11:43;;;;;;;4.00;1.50;;;;;;;;;;4971701;28;20634;-67
2023/07/26 10:14:11;;;;;;;3.87;1.77;;;;;;;;;;4954827;28;20193;-67
2023/07/26 10:16:38;;;;;;;2.83;1.40;;;;;;;;;;4971726;28;20197;-67
2023/07/26 10:19:08;;;;;;;5.27;1.80;;;;;;;;;;4971214;28;20714;-67
2023/07/26 10:21:37;;;;;;;3.73;1.63;;;;;;;;;;4969200;28;20198;-67
2023/07/26 10:24:04;;;;;;;3.70;1.90;;;;;;;;;;4971874;28;20648;-67
2023/07/26 10:26:49;;;;;;;2.73;1.53;;;;;;;;;;4972553;28;20237;-67
2023/07/26 10:29:16;;;;;;;3.67;1.60;;;;;;;;;;4972265;28;20848;-67
2023/07/26 10:31:47;;;;;;;3.67;1.90;;;;;;;;;;4972332;28;20214;-67
2023/07/26 10:34:20;;;;;;;2.77;1.60;;;;;;;;;;4955023;28;20200;-67
2023/07/26 10:36:46;;;;;;;4.90;1.60;;;;;;;;;;4955595;28;20864;-67
2023/07/26 10:39:14;;;;;;;5.13;2.50;;;;;;;;;;4955183;28;20256;-68
2023/07/26 10:41:47;;;;;;;2.97;1.70;;;;;;;;;;4972575;28;20203;-67
2023/07/26 10:44:14;;;;;;;2.60;1.70;;;;;;;;;;4970780;28;20229;-67
2023/07/26 10:46:48;;;;;;;3.03;1.47;;;;;;;;;;4972244;28;20253;-67
2023/07/26 10:49:26;;;;;;;3.77;1.70;;;;;;;;;;4972096;28;20188;-67
2023/07/26 10:52:00;;;;;;;4.50;1.80;;;;;;;;;;4972129;28;20193;-67
2023/07/26 10:54:48;;;;;;;3.13;1.60;;;;;;;;;;4971862;28;20174;-67
2023/07/26 10:57:19;;;;;;;3.63;1.50;;;;;;;;;;4971798;28;20189;-67
2023/07/26 10:59:51;;;;;;;5.00;1.90;;;;;;;;;;4971082;28;20212;-66
2023/07/26 11:02:35;;;;;;;4.13;1.87;;;;;;;;;;4974051;28;20193;-66
2023/07/26 11:05:02;;;;;;;4.07;1.87;;;;;;;;;;4973486;28;20280;-67
2023/07/26 11:07:58;;;;;;;4.23;1.70;;;;;;;;;;4973942;28;20221;-67
2023/07/26 11:10:25;;;;;;;3.83;1.50;;;;;;;;;;4958452;28;20291;-67
2023/07/26 11:13:04;;;;;;;3.00;1.20;;;;;;;;;;4973688;28;20213;-67
2023/07/26 11:15:31;;;;;;;4.60;1.47;;;;;;;;;;4973616;28;20613;-67
2023/07/26 11:18:20;;;;;;;2.57;1.30;;;;;;;;;;4972081;28;20189;-67
2023/07/26 11:21:05;;;;;;;2.57;1.27;;;;;;;;;;4967290;28;20186;-68
2023/07/26 11:23:32;;;;;;;2.30;1.40;;;;;;;;;;4969683;28;20201;-67
2023/07/26 11:25:59;;;;;;;3.53;1.33;;;;;;;;;;4972698;28;20193;-67
2023/07/26 11:28:32;;;;;;;2.87;1.50;;;;;;;;;;4971209;28;20217;-67
2023/07/26 11:31:00;;;;;;;3.27;1.70;;;;;;;;;;4956521;28;20200;-67
2023/07/26 11:33:32;;;;;;;3.50;1.50;;;;;;;;;;4954333;28;20194;-67
2023/07/26 11:36:00;;;;;;;3.80;1.50;;;;;;;;;;4970596;28;20727;-66
2023/07/26 11:38:27;;;;;;;3.03;1.47;;;;;;;;;;4973243;28;20264;-67
2023/07/26 11:40:54;;;;;;;7.03;2.00;;;;;;;;;;4970724;28;20268;-66
2023/07/26 11:43:21;;;;;;;5.80;1.90;;;;;;;;;;4971809;28;20225;-67
2023/07/26 11:45:48;;;;;;;4.17;2.00;;;;;;;;;;4971769;28;20189;-67
2023/07/26 11:48:15;;;;;;;4.33;2.00;;;;;;;;;;4973055;28;20224;-68
2023/07/26 11:50:42;;;;;;;3.50;1.70;;;;;;;;;;4968258;28;20196;-67
2023/07/26 11:53:10;;;;;;;3.63;2.07;;;;;;;;;;4971120;28;20196;-67
2023/07/26 11:55:38;;;;;;;6.27;2.07;;;;;;;;;;4971735;28;20202;-67
2023/07/26 11:58:08;;;;;;;5.03;2.43;;;;;;;;;;4971690;28;20248;-66
2023/07/26 12:00:54;;;;;;;4.33;2.30;;;;;;;;;;4969935;28;20181;-66
2023/07/26 12:03:22;;;;;;;7.10;2.67;;;;;;;;;;4954978;28;20182;-68
2023/07/26 12:05:53;;;;;;;4.53;2.37;;;;;;;;;;4972457;28;20287;-67
2023/07/26 12:08:20;;;;;;;4.57;2.30;;;;;;;;;;4972783;28;20213;-67
2023/07/26 12:10:47;;;;;;;4.53;2.30;;;;;;;;;;4935942;28;20201;-68
2023/07/26 12:13:18;;;;;;;3.37;2.27;;;;;;;;;;4971805;28;20224;-67
2023/07/26 12:15:51;;;;;;;6.30;2.30;;;;;;;;;;4955940;28;20714;-67
2023/07/26 12:18:19;;;;;;;5.97;2.50;;;;;;;;;;4971374;28;20193;-67
2023/07/26 12:20:54;;;;;;;5.80;2.43;;;;;;;;;;4971223;28;20197;-67
2023/07/26 12:23:22;;;;;;;8.17;2.40;;;;;;;;;;4972024;28;20204;-67
2023/07/26 12:25:52;;;;;;;3.53;2.27;;;;;;;;;;4971179;28;20224;-67
2023/07/26 12:28:19;;;;;;;3.63;2.27;;;;;;;;;;4969179;28;20230;-67
2023/07/26 12:30:55;;;;;;;4.60;2.50;;;;;;;;;;4969563;28;20279;-67
2023/07/26 12:33:22;;;;;;;5.83;2.67;;;;;;;;;;4971220;28;20197;-68
2023/07/26 12:36:07;;;;;;;4.43;2.30;;;;;;;;;;4969406;28;20182;-67
2023/07/26 12:38:34;;;;;;;4.90;1.90;;;;;;;;;;4973362;28;20205;-67
2023/07/26 12:41:01;;;;;;;7.50;2.30;;;;;;;;;;4971814;28;20554;-67
2023/07/26 12:43:28;;;;;;;4.57;2.13;;;;;;;;;;4971643;28;20264;-67
2023/07/26 12:45:59;;;;;;;6.30;2.20;;;;;;;;;;4953830;28;20217;-68
2023/07/26 12:48:26;;;;;;;2.90;2.20;;;;;;;;;;4961538;28;20229;-68
2023/07/26 12:50:54;;;;;;;5.47;2.37;;;;;;;;;;4968533;28;20518;-68
2023/07/26 12:53:21;;;;;;;3.63;1.83;;;;;;;;;;4970470;28;20211;-68
2023/07/26 12:56:05;;;;;;;4.70;2.43;;;;;;;;;;4970556;28;20169;-68
2023/07/26 12:58:32;;;;;;;3.87;2.37;;;;;;;;;;4969787;28;20198;-69
2023/07/26 13:01:19;;;;;;;4.40;1.87;;;;;;;;;;4971743;28;20170;-69
2023/07/26 13:03:46;;;;;;;4.07;2.10;;;;;;;;;;4967841;28;20653;-70
2023/07/26 13:06:13;;;;;;;5.60;2.20;;;;;;;;;;4970230;28;20217;-69
2023/07/26 13:08:39;;;;;;;4.23;1.93;;;;;;;;;;4971837;28;20275;-70
2023/07/26 13:11:06;;;;;;;2.90;2.10;;;;;;;;;;4969175;28;20557;-70
2023/07/26 13:13:33;;;;;;;4.73;2.13;;;;;;;;;;4970213;28;20252;-69
2023/07/26 13:16:00;;;;;;;5.20;2.43;;;;;;;;;;4971506;28;20189;-69
2023/07/26 13:18:27;;;;;;;6.77;2.20;;;;;;;;;;4970314;28;20201;-60
2023/07/26 13:20:55;;;;;;;4.00;1.93;;;;;;;;;;4972416;28;20268;-60
2023/07/26 13:23:22;;;;;;;5.53;2.10;;;;;;;;;;4970604;28;20549;-60
2023/07/26 13:25:49;;;;;;;6.73;2.20;;;;;;;;;;4964688;28;20666;-59
2023/07/26 13:28:16;;;;;;;3.60;1.93;;;;;;;;;;4956091;28;20221;-60
2023/07/26 13:30:43;;;;;;;4.77;2.30;;;;;;;;;;4970712;28;20273;-60
2023/07/26 13:33:10;;;;;;;6.53;2.30;;;;;;;;;;4969598;28;20185;-67
2023/07/26 13:35:54;;;;;;;4.67;2.17;;;;;;;;;;4949180;28;20212;-69
2023/07/26 13:38:21;;;;;;;6.53;2.17;;;;;;;;;;4969368;28;20535;-69
2023/07/26 13:40:47;;;;;;;4.70;2.53;;;;;;;;;;4971039;28;20260;-70
2023/07/26 13:43:14;;;;;;;3.47;2.30;;;;;;;;;;4970973;28;20198;-69
2023/07/26 13:45:41;;;;;;;4.63;2.00;;;;;;;;;;4970845;28;20252;-69
2023/07/26 13:48:25;;;;;;;6.23;2.20;;;;;;;;;;4968241;28;20300;-69
2023/07/26 13:50:52;;;;;;;4.03;1.90;;;;;;;;;;4965455;28;20225;-68
2023/07/26 13:53:19;;;;;;;5.13;1.90;;;;;;;;;;4967949;28;20204;-68
2023/07/26 13:55:46;;;;;;;3.10;1.67;;;;;;;;;;4971208;28;20189;-68
2023/07/26 13:58:13;;;;;;;4.43;2.20;;;;;;;;;;4973680;28;20300;-68
2023/07/26 14:00:40;;;;;;;6.60;2.10;;;;;;;;;;4963607;28;20277;-68
2023/07/26 14:03:07;;;;;;;5.40;2.07;;;;;;;;;;4961223;28;20200;-68
2023/07/26 14:05:36;;;;;;;6.17;1.70;;;;;;;;;;4973409;28;20201;-68
2023/07/26 14:08:03;;;;;;;4.50;2.33;;;;;;;;;;4972805;28;20691;-68
2023/07/26 14:10:30;;;;;;;6.37;2.47;;;;;;;;;;4955669;28;20248;-69
2023/07/26 14:12:57;;;;;;;2.73;1.80;;;;;;;;;;4974226;28;20182;-68
2023/07/26 14:15:26;;;;;;;5.20;1.60;;;;;;;;;;4974700;28;20194;-67
2023/07/26 14:17:53;;;;;;;4.53;1.93;;;;;;;;;;4971300;28;20788;-67
2023/07/26 14:20:20;;;;;;;5.57;2.00;;;;;;;;;;4974681;28;20209;-68
2023/07/26 14:22:48;;;;;;;5.33;1.90;;;;;;;;;;4974684;28;20244;-67
2023/07/26 14:25:15;;;;;;;5.00;1.73;;;;;;;;;;4973736;28;20546;-67
2023/07/26 14:27:41;;;;;;;4.87;2.00;;;;;;;;;;4973216;28;20214;-67
2023/07/26 14:30:26;;;;;;;4.07;1.67;;;;;;;;;;4966776;28;20344;-68
2023/07/26 14:32:53;;;;;;;3.50;1.63;;;;;;;;;;4971470;28;21039;-68
2023/07/26 14:35:20;;;;;;;4.07;1.83;;;;;;;;;;4973010;28;20198;-67
2023/07/26 14:37:47;;;;;;;3.73;1.87;;;;;;;;;;4970032;28;20202;-69
2023/07/26 14:40:14;;;;;;;5.67;2.10;;;;;;;;;;4970149;28;20201;-68
2023/07/26 14:42:41;;;;;;;6.30;2.10;;;;;;;;;;4971653;28;20197;-68
2023/07/26 14:45:08;;;;;;;5.53;1.70;;;;;;;;;;4969946;28;20225;-68
2023/07/26 14:47:35;;;;;;;4.17;1.87;;;;;;;;;;4954587;28;20201;-68
2023/07/26 14:50:02;;;;;;;6.23;1.80;;;;;;;;;;4968596;28;20251;-68
2023/07/26 14:52:31;;;;;;;3.93;1.97;;;;;;;;;;4970781;28;20197;-68
2023/07/26 14:54:58;;;;;;;2.70;1.00;;;;;;;;;;4937852;28;20193;-68
2023/07/26 14:57:25;;;;;;;2.23;1.40;;;;;;;;;;4969413;28;20194;-58
2023/07/26 14:59:52;;;;;;;3.57;1.30;;;;;;;;;;4968961;28;20193;-58
2023/07/26 15:02:19;;;;;;;2.30;0.90;;;;;;;;;;4971088;28;20201;-58
2023/07/26 15:04:46;;;;;;;2.83;1.07;;;;;;;;;;4970389;28;20530;-59
2023/07/26 15:07:13;;;;;;;1.80;1.20;;;;;;;;;;4970755;28;20198;-58
2023/07/26 15:09:41;;;;;;;1.60;1.27;;;;;;;;;;4971661;28;20221;-58
2023/07/26 15:12:26;;;;;;;2.90;1.10;;;;;;;;;;4968814;28;20185;-59
2023/07/26 15:14:55;;;;;;;2.47;1.37;;;;;;;;;;4970011;28;20250;-59
2023/07/26 15:17:22;;;;;;;2.27;1.10;;;;;;;;;;4952469;28;20228;-59
2023/07/26 15:19:49;;;;;;;3.17;1.80;;;;;;;;;;4967903;28;20200;-58
2023/07/26 15:22:16;;;;;;;1.77;1.13;;;;;;;;;;4970698;28;20225;-59
2023/07/26 15:24:45;;;;;;;3.50;1.20;;;;;;;;;;4969400;28;20197;-59
2023/07/26 15:27:12;;;;;;;2.90;1.23;;;;;;;;;;4970792;28;20201;-59